createdAt,value
2022-12-13T00:00:57.369Z,-3.64
2022-12-13T00:03:23.971Z,-3.61
2022-12-13T00:05:50.552Z,-3.73
2022-12-13T00:08:17.331Z,-3.99
2022-12-13T00:10:43.942Z,-4.00
2022-12-13T00:13:10.525Z,-3.87
2022-12-13T00:15:37.124Z,-3.93
2022-12-13T00:18:03.794Z,-4.03
2022-12-13T00:20:30.365Z,-3.88
2022-12-13T00:22:56.947Z,-4.05
2022-12-13T00:25:23.644Z,-4.12
2022-12-13T00:27:50.343Z,-3.94
2022-12-13T00:30:16.965Z,-3.97
2022-12-13T00:32:43.560Z,-3.86
2022-12-13T00:35:10.170Z,-3.81
2022-12-13T00:37:36.814Z,-3.68
2022-12-13T00:40:03.819Z,-3.75
2022-12-13T00:42:30.403Z,-3.87
2022-12-13T00:44:57.051Z,-3.49
2022-12-13T00:47:23.829Z,-3.22
2022-12-13T00:49:50.450Z,-3.32
2022-12-13T00:52:17.038Z,-3.54
2022-12-13T00:54:43.635Z,-3.42
2022-12-13T00:57:10.195Z,-3.30
2022-12-13T00:59:36.810Z,-3.24
2022-12-13T01:02:04.092Z,-3.33
2022-12-13T01:04:30.732Z,-3.59
2022-12-13T01:06:57.389Z,-3.56
2022-12-13T01:09:26.399Z,-3.66
2022-12-13T01:12:05.995Z,-3.45
2022-12-13T01:14:35.531Z,-3.88
2022-12-13T01:17:02.303Z,-3.66
2022-12-13T01:19:29.075Z,-4.18
2022-12-13T01:21:56.785Z,-4.36
2022-12-13T01:24:23.417Z,-4.57
2022-12-13T01:26:50.594Z,-3.98
2022-12-13T01:29:18.828Z,-4.23
2022-12-13T01:31:45.418Z,-4.36
2022-12-13T01:34:14.098Z,-4.33
2022-12-13T01:36:42.619Z,-4.38
2022-12-13T01:39:15.372Z,-4.46
2022-12-13T01:41:43.888Z,-4.25
2022-12-13T01:44:48.139Z,-4.12
2022-12-13T01:47:20.438Z,-4.24
2022-12-13T01:49:47.615Z,-4.31
2022-12-13T01:52:15.339Z,-4.19
2022-12-13T01:54:47.231Z,-4.32
2022-12-13T01:57:19.972Z,-4.19
2022-12-13T01:59:47.366Z,-3.98
2022-12-13T02:02:15.239Z,-4.11
2022-12-13T02:04:50.825Z,-4.33
2022-12-13T02:07:23.593Z,-4.35
2022-12-13T02:09:57.304Z,-4.58
2022-12-13T02:12:31.083Z,-4.38
2022-12-13T02:15:12.210Z,-4.53
2022-12-13T02:17:44.976Z,-4.62
2022-12-13T02:20:22.145Z,-4.57
2022-12-13T02:23:32.563Z,-4.46
2022-12-13T02:26:17.914Z,-4.63
2022-12-13T02:28:59.741Z,-4.60
2022-12-13T02:31:44.764Z,-4.37
2022-12-13T02:34:24.378Z,-4.52
2022-12-13T02:37:06.038Z,-4.51
2022-12-13T02:39:54.070Z,-4.58
2022-12-13T02:42:35.170Z,-4.31
2022-12-13T02:45:17.332Z,-4.50
2022-12-13T02:47:49.337Z,-4.32
2022-12-13T02:50:16.013Z,-4.37
2022-12-13T02:52:43.996Z,-4.41
2022-12-13T02:55:15.021Z,-4.26
2022-12-13T02:57:43.845Z,-4.32
2022-12-13T03:00:29.370Z,-4.11
2022-12-13T03:03:11.253Z,-3.94
2022-12-13T03:06:12.308Z,-4.18
2022-12-13T03:09:03.288Z,-4.19
2022-12-13T03:11:39.660Z,-4.14
2022-12-13T03:14:09.369Z,-4.29
2022-12-13T03:16:42.109Z,-4.25
2022-12-13T03:19:10.976Z,-4.39
2022-12-13T03:21:47.695Z,-4.42
2022-12-13T03:24:20.902Z,-4.47
2022-12-13T03:26:49.652Z,-4.62
2022-12-13T03:29:23.887Z,-4.77
2022-12-13T03:31:52.538Z,-4.46
2022-12-13T03:34:22.999Z,-4.52
2022-12-13T03:36:52.042Z,-4.70
2022-12-13T03:39:19.899Z,-4.58
2022-12-13T03:41:46.940Z,-4.49
2022-12-13T03:44:13.622Z,-4.33
2022-12-13T03:46:40.455Z,-4.43
2022-12-13T03:49:07.088Z,-4.83
2022-12-13T03:51:33.834Z,-4.66
2022-12-13T03:54:00.407Z,-4.46
2022-12-13T03:56:26.999Z,-4.07
2022-12-13T03:58:53.714Z,-4.39
2022-12-13T04:01:20.431Z,-4.58
2022-12-13T04:03:47.556Z,-4.78
2022-12-13T04:06:22.481Z,-4.48
2022-12-13T04:08:51.865Z,-4.24
2022-12-13T04:11:19.401Z,-4.74
2022-12-13T04:13:45.993Z,-4.35
2022-12-13T04:16:12.638Z,-4.28
2022-12-13T04:18:39.285Z,-4.48
2022-12-13T04:21:06.050Z,-4.52
2022-12-13T04:23:32.716Z,-4.34
2022-12-13T04:26:00.748Z,-4.30
2022-12-13T04:28:27.387Z,-4.61
2022-12-13T04:30:54.285Z,-4.18
2022-12-13T04:33:22.262Z,-4.35
2022-12-13T04:35:50.308Z,-4.67
2022-12-13T04:38:17.151Z,-4.56
2022-12-13T04:40:43.777Z,-4.56
2022-12-13T04:43:10.442Z,-4.61
2022-12-13T04:45:37.155Z,-4.93
2022-12-13T04:48:04.081Z,-5.25
2022-12-13T04:50:30.712Z,-4.96
2022-12-13T04:52:57.304Z,-4.55
2022-12-13T04:55:23.888Z,-4.66
2022-12-13T04:57:50.487Z,-4.46
2022-12-13T05:00:17.198Z,-4.78
2022-12-13T05:02:44.063Z,-4.65
2022-12-13T05:05:11.351Z,-4.45
2022-12-13T05:07:42.314Z,-4.43
2022-12-13T05:10:10.356Z,-4.22
2022-12-13T05:12:36.995Z,-4.18
2022-12-13T05:15:03.954Z,-4.48
2022-12-13T05:17:30.585Z,-4.61
2022-12-13T05:19:57.291Z,-4.46
2022-12-13T05:22:23.954Z,-4.28
2022-12-13T05:24:50.599Z,-4.39
2022-12-13T05:27:23.965Z,-4.53
2022-12-13T05:30:03.997Z,-4.26
2022-12-13T05:32:42.751Z,-4.17
2022-12-13T05:35:23.480Z,-4.27
2022-12-13T05:37:55.303Z,-4.45
2022-12-13T05:40:23.407Z,-4.70
2022-12-13T05:42:50.238Z,-4.76
2022-12-13T05:45:20.796Z,-4.51
2022-12-13T05:47:47.725Z,-4.78
2022-12-13T05:50:15.793Z,-4.99
2022-12-13T05:52:43.356Z,-5.02
2022-12-13T05:55:11.382Z,-4.99
2022-12-13T05:57:38.821Z,-5.07
2022-12-13T06:00:07.701Z,-5.15
2022-12-13T06:02:54.810Z,-4.12
2022-12-13T06:05:21.543Z,-4.27
2022-12-13T06:07:52.115Z,-3.57
2022-12-13T06:10:22.097Z,-3.84
2022-12-13T06:12:49.008Z,-3.96
2022-12-13T06:15:22.449Z,-4.04
2022-12-13T06:17:49.536Z,-4.10
2022-12-13T06:20:23.410Z,-4.08
2022-12-13T06:22:52.620Z,-4.03
2022-12-13T06:25:31.542Z,-4.02
2022-12-13T06:28:01.628Z,-4.04
2022-12-13T06:30:31.882Z,-3.98
2022-12-13T06:32:58.567Z,-3.99
2022-12-13T06:35:29.912Z,-3.99
2022-12-13T06:38:00.943Z,-4.02
2022-12-13T06:40:31.976Z,-4.05
2022-12-13T06:42:58.607Z,-4.00
2022-12-13T06:45:25.446Z,-4.01
2022-12-13T06:47:52.273Z,-4.14
2022-12-13T06:50:18.899Z,-4.04
2022-12-13T06:52:48.608Z,-3.97
2022-12-13T06:55:15.443Z,-4.06
2022-12-13T06:57:51.020Z,-4.94
2022-12-13T07:00:22.385Z,-5.70
2022-12-13T07:02:56.093Z,-5.41
2022-12-13T07:05:23.111Z,-5.29
2022-12-13T07:07:49.814Z,-4.89
2022-12-13T07:10:22.641Z,-4.77
2022-12-13T07:12:49.942Z,-4.68
2022-12-13T07:15:16.610Z,-4.53
2022-12-13T07:17:43.281Z,-5.01
2022-12-13T07:20:10.601Z,-4.45
2022-12-13T07:22:44.958Z,-4.49
2022-12-13T07:25:28.441Z,-5.43
2022-12-13T07:28:01.897Z,-5.54
2022-12-13T07:30:30.930Z,-5.15
2022-12-13T07:32:57.534Z,-4.39
2022-12-13T07:35:24.120Z,-4.66
2022-12-13T07:37:50.705Z,-4.55
2022-12-13T07:40:17.303Z,-4.78
2022-12-13T07:42:50.325Z,-5.14
2022-12-13T07:45:17.096Z,-5.34
2022-12-13T07:47:43.805Z,-5.07
2022-12-13T07:50:23.749Z,-4.88
2022-12-13T07:52:52.356Z,-5.04
2022-12-13T07:55:18.950Z,-5.26
2022-12-13T07:57:49.973Z,-5.00
2022-12-13T08:00:16.967Z,-5.15
2022-12-13T08:02:43.550Z,-4.68
2022-12-13T08:05:26.062Z,-5.13
2022-12-13T08:07:53.484Z,-4.99
2022-12-13T08:10:20.170Z,-5.13
2022-12-13T08:12:46.857Z,-4.91
2022-12-13T08:15:16.515Z,-4.45
2022-12-13T08:17:43.370Z,-4.55
2022-12-13T08:20:10.393Z,-4.67
2022-12-13T08:22:37.212Z,-4.23
2022-12-13T08:25:04.170Z,-3.99
2022-12-13T08:27:30.802Z,-4.33
2022-12-13T08:29:57.446Z,-4.60
2022-12-13T08:32:24.427Z,-3.85
2022-12-13T08:34:51.039Z,-3.92
2022-12-13T08:37:18.154Z,-3.91
2022-12-13T08:39:45.145Z,-3.82
2022-12-13T08:42:18.360Z,-3.47
2022-12-13T08:44:51.468Z,-3.19
2022-12-13T08:47:25.882Z,-3.36
2022-12-13T08:49:54.559Z,-3.51
2022-12-13T08:52:22.406Z,-3.93
2022-12-13T08:54:49.006Z,-4.02
2022-12-13T08:57:15.591Z,-3.93
2022-12-13T08:59:42.435Z,-3.62
2022-12-13T09:02:15.560Z,-3.59
2022-12-13T09:04:42.549Z,-3.51
2022-12-13T09:07:09.172Z,-3.60
2022-12-13T09:09:36.998Z,-3.47
2022-12-13T09:12:10.374Z,-3.66
2022-12-13T09:14:45.310Z,-3.09
2022-12-13T09:17:23.750Z,-3.01
2022-12-13T09:19:58.026Z,-2.95
2022-12-13T09:22:33.378Z,-2.76
2022-12-13T09:25:04.047Z,-2.56
2022-12-13T09:27:39.853Z,-2.62
2022-12-13T09:30:08.306Z,-2.57
2022-12-13T09:32:34.926Z,-2.28
2022-12-13T09:35:01.549Z,-1.81
2022-12-13T09:37:29.586Z,-2.02
2022-12-13T09:39:56.195Z,-2.00
2022-12-13T09:42:30.869Z,-1.69
2022-12-13T09:45:06.784Z,-1.83
2022-12-13T09:47:51.523Z,-1.89
2022-12-13T09:50:38.575Z,-1.88
2022-12-13T09:53:11.862Z,-1.89
2022-12-13T09:55:50.780Z,-1.87
2022-12-13T09:58:28.037Z,-1.83
2022-12-13T10:00:56.542Z,-1.81
2022-12-13T10:03:25.572Z,-1.80
2022-12-13T10:06:01.000Z,-1.83
2022-12-13T10:08:35.900Z,-1.84
2022-12-13T10:11:02.774Z,-1.74
2022-12-13T10:13:47.684Z,-1.83
2022-12-13T10:16:23.293Z,-1.63
2022-12-13T10:18:51.403Z,-1.56
2022-12-13T10:21:25.208Z,-1.08
2022-12-13T10:26:39.218Z,-1.37
2022-12-13T10:29:06.863Z,-1.00
2022-12-13T10:31:45.736Z,-1.10
2022-12-13T10:34:35.663Z,-0.59
2022-12-13T10:37:23.813Z,-1.45
2022-12-13T10:39:50.434Z,-1.61
2022-12-13T10:42:22.570Z,-1.02
2022-12-13T10:45:10.924Z,-1.27
2022-12-13T10:47:37.770Z,-0.90
2022-12-13T10:50:05.031Z,-1.08
2022-12-13T10:52:32.761Z,-0.68
2022-12-13T10:55:23.134Z,-0.15
2022-12-13T10:57:59.820Z,0.11
2022-12-13T11:00:37.467Z,0.03
2022-12-13T11:03:04.947Z,-0.04
2022-12-13T11:05:36.871Z,-0.47
2022-12-13T11:08:32.991Z,-0.08
2022-12-13T11:11:05.163Z,-1.00
2022-12-13T11:13:35.567Z,-0.68
2022-12-13T11:16:03.923Z,-0.36
2022-12-13T11:18:36.414Z,-0.41
2022-12-13T11:21:05.361Z,-0.42
2022-12-13T11:23:37.573Z,-0.36
2022-12-13T11:26:24.107Z,-0.36
2022-12-13T11:28:51.347Z,0.00
2022-12-13T11:31:59.154Z,0.01
2022-12-13T11:34:44.143Z,-0.10
2022-12-13T11:37:40.932Z,0.21
2022-12-13T11:40:25.829Z,0.59
2022-12-13T11:43:41.523Z,0.36
2022-12-13T11:46:19.904Z,0.26
2022-12-13T11:49:03.243Z,0.67
2022-12-13T11:52:10.297Z,0.47
2022-12-13T11:55:15.108Z,0.79
2022-12-13T11:57:46.348Z,0.88
2022-12-13T12:00:33.882Z,1.05
2022-12-13T12:03:14.370Z,0.99
2022-12-13T12:05:47.742Z,0.40
2022-12-13T12:08:48.043Z,0.36
2022-12-13T12:11:23.583Z,0.77
2022-12-13T12:14:15.207Z,-0.03
2022-12-13T12:17:17.753Z,0.49
2022-12-13T12:19:49.488Z,0.63
2022-12-13T12:22:34.094Z,0.57
2022-12-13T12:25:12.839Z,0.84
2022-12-13T12:27:48.244Z,0.85
2022-12-13T12:30:23.188Z,1.10
2022-12-13T12:32:51.677Z,0.80
2022-12-13T12:35:27.865Z,0.98
2022-12-13T12:38:34.744Z,1.17
2022-12-13T12:41:28.044Z,1.38
2022-12-13T12:44:21.406Z,0.95
2022-12-13T12:47:32.644Z,0.96
2022-12-13T12:49:57.807Z,1.36
2022-12-13T12:52:42.681Z,1.34
2022-12-13T12:55:15.260Z,1.35
2022-12-13T12:58:03.688Z,0.54
2022-12-13T13:00:47.602Z,1.07
2022-12-13T13:03:24.201Z,1.38
2022-12-13T13:06:05.276Z,0.85
2022-12-13T13:08:53.439Z,1.23
2022-12-13T13:11:25.512Z,0.94
2022-12-13T13:14:01.794Z,1.03
2022-12-13T13:16:39.950Z,0.74
2022-12-13T13:19:12.628Z,0.91
2022-12-13T13:22:01.469Z,1.25
2022-12-13T13:24:31.613Z,1.03
2022-12-13T13:27:19.885Z,0.85
2022-12-13T13:29:46.743Z,0.97
2022-12-13T13:32:29.370Z,1.12
2022-12-13T13:35:28.424Z,0.78
2022-12-13T13:37:55.863Z,0.53
2022-12-13T13:40:34.477Z,0.57
2022-12-13T13:43:06.870Z,0.64
2022-12-13T13:45:51.592Z,0.33
2022-12-13T13:48:42.484Z,0.03
2022-12-13T13:51:18.241Z,0.34
2022-12-13T13:54:31.180Z,-0.23
2022-12-13T13:57:16.397Z,0.10
2022-12-13T13:59:45.779Z,-0.29
2022-12-13T14:02:36.768Z,0.33
2022-12-13T14:05:25.190Z,0.21
2022-12-13T14:08:03.852Z,0.59
2022-12-13T14:11:01.462Z,0.42
2022-12-13T14:14:06.011Z,-0.23
2022-12-13T14:16:48.867Z,0.45
2022-12-13T14:20:05.376Z,0.37
2022-12-13T14:22:49.762Z,0.14
2022-12-13T14:25:52.548Z,0.38
2022-12-13T14:28:50.654Z,0.33
2022-12-13T14:31:24.387Z,-0.01
2022-12-13T14:33:56.403Z,-0.22
2022-12-13T14:36:32.316Z,-0.11
2022-12-13T14:39:03.665Z,-0.16
2022-12-13T14:41:30.393Z,-0.00
2022-12-13T14:44:29.849Z,-0.01
2022-12-13T14:46:57.527Z,-0.39
2022-12-13T14:49:26.969Z,-0.54
2022-12-13T14:52:03.406Z,-0.58
2022-12-13T14:54:40.833Z,-0.48
2022-12-13T14:57:16.798Z,-0.45
2022-12-13T14:59:50.457Z,-0.43
2022-12-13T15:02:30.932Z,-0.53
2022-12-13T15:05:04.585Z,-0.45
2022-12-13T15:07:39.933Z,-0.45
2022-12-13T15:10:26.823Z,-0.55
2022-12-13T15:12:55.146Z,-0.66
2022-12-13T15:15:37.845Z,-0.62
2022-12-13T15:18:24.815Z,-0.64
2022-12-13T15:20:53.515Z,-0.87
2022-12-13T15:23:23.047Z,-0.84
2022-12-13T15:26:08.668Z,-0.80
2022-12-13T15:28:39.513Z,-0.77
2022-12-13T15:31:07.028Z,-0.82
2022-12-13T15:33:37.931Z,-0.96
2022-12-13T15:36:15.800Z,-0.97
2022-12-13T15:38:54.788Z,-1.02
2022-12-13T15:41:29.210Z,-1.14
2022-12-13T15:44:16.042Z,-0.95
2022-12-13T15:46:45.599Z,-0.79
2022-12-13T15:49:24.461Z,-0.69
2022-12-13T15:52:00.077Z,-0.96
2022-12-13T15:54:26.918Z,-1.05
2022-12-13T15:57:21.689Z,-1.04
2022-12-13T15:59:48.878Z,-1.27
2022-12-13T16:02:21.238Z,-1.23
2022-12-13T16:04:47.942Z,-1.25
2022-12-13T16:07:43.967Z,-1.38
2022-12-13T16:10:18.696Z,-1.30
2022-12-13T16:12:49.944Z,-1.40
2022-12-13T16:15:29.180Z,-1.50
2022-12-13T16:18:27.960Z,-1.36
2022-12-13T16:20:55.319Z,-1.37
2022-12-13T16:23:27.869Z,-1.42
2022-12-13T16:25:54.743Z,-1.42
2022-12-13T16:28:21.330Z,-1.56
2022-12-13T16:30:52.875Z,-1.61
2022-12-13T16:33:26.848Z,-1.63
2022-12-13T16:35:57.005Z,-1.66
2022-12-13T16:38:26.626Z,-1.68
2022-12-13T16:40:55.610Z,-1.65
2022-12-13T16:43:32.853Z,-1.69
2022-12-13T16:46:02.149Z,-1.66
2022-12-13T16:48:49.113Z,-1.74
2022-12-13T16:51:15.688Z,-1.81
2022-12-13T16:53:42.267Z,-1.84
2022-12-13T16:56:08.923Z,-1.81
2022-12-13T16:58:35.521Z,-1.80
2022-12-13T17:01:02.171Z,-1.80
2022-12-13T17:03:34.785Z,-1.84
2022-12-13T17:06:01.758Z,-1.73
2022-12-13T17:08:28.467Z,-1.70
2022-12-13T17:10:58.258Z,-1.74
2022-12-13T17:13:25.883Z,-1.88
2022-12-13T17:15:59.153Z,-1.93
2022-12-13T17:18:27.630Z,-2.08
2022-12-13T17:20:58.580Z,-2.05
2022-12-13T17:23:26.647Z,-2.04
2022-12-13T17:25:58.244Z,-2.04
2022-12-13T17:28:25.767Z,-2.19
2022-12-13T17:30:55.014Z,-2.17
2022-12-13T17:33:22.234Z,-2.10
2022-12-13T17:35:48.960Z,-2.15
2022-12-13T17:38:15.549Z,-2.13
2022-12-13T17:40:42.191Z,-2.07
2022-12-13T17:43:27.222Z,-1.95
2022-12-13T17:46:07.623Z,-1.99
2022-12-13T17:48:40.214Z,-2.13
2022-12-13T17:51:09.179Z,-2.16
2022-12-13T17:53:36.391Z,-2.18
2022-12-13T17:56:05.504Z,-2.17
2022-12-13T17:58:32.088Z,-2.28
2022-12-13T18:00:59.442Z,-2.18
2022-12-13T18:03:26.589Z,-2.25
2022-12-13T18:05:58.069Z,-2.46
2022-12-13T18:08:25.296Z,-2.58
2022-12-13T18:11:23.932Z,-2.70
2022-12-13T18:13:45.758Z,-2.70
2022-12-13T18:16:14.835Z,-2.50
2022-12-13T18:18:42.030Z,-2.47
2022-12-13T18:21:21.660Z,-2.40
2022-12-13T18:23:55.017Z,-2.31
2022-12-13T18:26:22.522Z,-2.30
2022-12-13T18:28:49.109Z,-2.39
2022-12-13T18:31:18.297Z,-2.29
2022-12-13T18:33:47.859Z,-2.45
2022-12-13T18:36:15.539Z,-2.55
2022-12-13T18:38:43.041Z,-2.85
2022-12-13T18:41:11.745Z,-2.96
2022-12-13T18:43:38.413Z,-3.01
2022-12-13T18:46:05.585Z,-2.97
2022-12-13T18:48:32.384Z,-2.91
2022-12-13T18:51:03.846Z,-2.91
2022-12-13T18:53:33.517Z,-2.86
2022-12-13T18:56:02.248Z,-2.74
2022-12-13T18:58:28.836Z,-2.88
2022-12-13T19:01:02.524Z,-3.07
2022-12-13T19:03:29.976Z,-3.26
2022-12-13T19:05:57.239Z,-3.37
2022-12-13T19:08:24.213Z,-3.29
2022-12-13T19:10:50.802Z,-3.15
2022-12-13T19:13:17.398Z,-2.92
2022-12-13T19:15:44.090Z,-2.80
2022-12-13T19:18:10.803Z,-2.76
2022-12-13T19:20:37.495Z,-2.88
2022-12-13T19:23:04.132Z,-3.09
2022-12-13T19:25:30.824Z,-3.42
2022-12-13T19:27:57.413Z,-3.16
2022-12-13T19:30:24.048Z,-3.03
2022-12-13T19:32:50.656Z,-2.93
2022-12-13T19:35:17.337Z,-2.91
2022-12-13T19:37:43.961Z,-2.76
2022-12-13T19:40:10.996Z,-2.67
2022-12-13T19:42:37.559Z,-2.70
2022-12-13T19:45:04.374Z,-2.88
2022-12-13T19:47:30.966Z,-3.11
2022-12-13T19:49:57.556Z,-3.16
2022-12-13T19:52:24.203Z,-3.13
2022-12-13T19:54:50.797Z,-3.13
2022-12-13T19:57:17.443Z,-3.04
2022-12-13T19:59:44.060Z,-3.07
2022-12-13T20:02:14.530Z,-3.13
2022-12-13T20:04:41.140Z,-3.15
2022-12-13T20:07:07.745Z,-3.26
2022-12-13T20:09:34.326Z,-3.32
2022-12-13T20:12:01.992Z,-3.55
2022-12-13T20:14:28.599Z,-3.53
2022-12-13T20:16:55.177Z,-3.59
2022-12-13T20:19:23.316Z,-3.49
2022-12-13T20:21:54.988Z,-3.43
2022-12-13T20:24:23.458Z,-3.51
2022-12-13T20:26:50.026Z,-3.70
2022-12-13T20:29:18.171Z,-3.70
2022-12-13T20:31:48.350Z,-3.67
2022-12-13T20:34:15.917Z,-3.49
2022-12-13T20:36:42.819Z,-3.35
2022-12-13T20:39:11.805Z,-3.53
2022-12-13T20:41:38.387Z,-3.60
2022-12-13T20:44:06.897Z,-3.95
2022-12-13T20:46:34.185Z,-4.13
2022-12-13T20:49:03.330Z,-4.42
2022-12-13T20:51:31.950Z,-4.37
2022-12-13T20:53:58.777Z,-4.22
2022-12-13T20:56:31.132Z,-4.23
2022-12-13T20:58:57.696Z,-4.04
2022-12-13T21:01:29.048Z,-3.87
2022-12-13T21:03:58.132Z,-4.11
2022-12-13T21:06:24.731Z,-3.98
2022-12-13T21:08:51.322Z,-3.94
2022-12-13T21:11:19.915Z,-4.01
2022-12-13T21:13:47.287Z,-3.80
2022-12-13T21:16:15.167Z,-3.95
2022-12-13T21:18:41.844Z,-3.93
2022-12-13T21:21:09.470Z,-3.58
2022-12-13T21:23:36.902Z,-4.05
2022-12-13T21:26:03.609Z,-4.20
2022-12-13T21:28:30.493Z,-4.45
2022-12-13T21:31:01.914Z,-4.34
2022-12-13T21:33:29.343Z,-4.30
2022-12-13T21:35:56.667Z,-4.33
2022-12-13T21:38:23.280Z,-4.24
2022-12-13T21:40:50.639Z,-4.28
2022-12-13T21:43:17.333Z,-4.13
2022-12-13T21:45:44.537Z,-4.31
2022-12-13T21:48:13.885Z,-4.30
2022-12-13T21:50:40.457Z,-4.36
2022-12-13T21:53:07.036Z,-4.41
2022-12-13T21:55:40.695Z,-4.43
2022-12-13T21:58:08.845Z,-4.31
2022-12-13T22:00:36.564Z,-4.28
2022-12-13T22:03:04.211Z,-4.39
2022-12-13T22:05:30.783Z,-4.43
2022-12-13T22:07:57.370Z,-4.41
2022-12-13T22:10:23.969Z,-4.45
2022-12-13T22:12:50.602Z,-4.26
2022-12-13T22:15:17.284Z,-4.11
2022-12-13T22:17:43.874Z,-4.21
2022-12-13T22:20:12.692Z,-4.18
2022-12-13T22:22:40.663Z,-4.22
2022-12-13T22:25:07.967Z,-4.20
2022-12-13T22:27:34.626Z,-4.34
2022-12-13T22:30:01.231Z,-4.61
2022-12-13T22:32:31.028Z,-4.60
2022-12-13T22:34:57.828Z,-4.63
2022-12-13T22:37:24.790Z,-4.63
2022-12-13T22:39:51.466Z,-4.67
2022-12-13T22:42:18.075Z,-4.60
2022-12-13T22:44:44.850Z,-4.71
2022-12-13T22:47:11.429Z,-4.78
2022-12-13T22:49:38.134Z,-4.85
2022-12-13T22:52:04.950Z,-4.83
2022-12-13T22:54:31.552Z,-4.70
2022-12-13T22:56:58.113Z,-4.71
2022-12-13T22:59:24.711Z,-4.74
2022-12-13T23:01:51.500Z,-4.60
2022-12-13T23:04:18.356Z,-4.74
2022-12-13T23:06:44.957Z,-4.71
2022-12-13T23:09:12.954Z,-4.85
2022-12-13T23:11:39.709Z,-4.78
2022-12-13T23:14:09.517Z,-4.64
2022-12-13T23:16:36.861Z,-4.58
2022-12-13T23:19:39.839Z,-4.72
2022-12-13T23:21:53.067Z,-4.89
2022-12-13T23:24:19.799Z,-4.79
2022-12-13T23:26:46.443Z,-4.60
2022-12-13T23:29:13.144Z,-4.77
2022-12-13T23:31:42.343Z,-4.73
2022-12-13T23:34:15.266Z,-4.83
2022-12-13T23:36:41.871Z,-4.88
2022-12-13T23:39:08.485Z,-4.96
2022-12-13T23:41:35.536Z,-5.00
2022-12-13T23:44:02.157Z,-4.88
2022-12-13T23:46:34.629Z,-5.00
2022-12-13T23:49:03.225Z,-4.79
2022-12-13T23:51:30.025Z,-4.94
2022-12-13T23:53:56.633Z,-5.01
2022-12-13T23:56:23.680Z,-4.83
2022-12-13T23:58:50.358Z,-4.78
